Portada
METAR-TAF:

METAR-TAF

Aeropuertos :

Aeropuerto Internacional de Yamena

Yamena, Chad

latitud: 12-08N, longitud: 015-02E, altitud: 295 m

Observación

El informe se hizo hace 42 minutos, a las 18:00 UTC
Viento 8 kt del norte
Temperatura 29°C
Humedad 13%
Presión 1010 hPa
Visibilidad: 8000 m

METAR: FTTJ 211800Z 35008KT 8000 NSC 29/M02 Q1010 NOSIG

Hora: 19:42 (18:42 UTC)

Pronóstico

El informe se hizo hace 1 hora y 42 minutos, a las 17:00 UTC
Pronóstico válido del 21 a las 18 UTC al 22 a las 24 UTC
Viento 6 kt del norte
Visibilidad: 6000 m
Temporalmente
del 22 a las 07 UTC al 22 a las 12 UTC
Viento 14 kt del este-noreste

TAF: FTTJ 211700Z 2118/2224 36006KT 6000 NSC TEMPO 2207/2212 06014KT

Observaciones y pronósticos meteorológicos de más de 4000 aeropuertos (mensajes METAR y TAF).

Los puntos amarillos y rojos representan las estaciones disponibles.

Ponga el ratón en el punto deseado para ver el nombre de la estación.

Haga clic para ver las observaciones y los pronósticos meteorológicos.

Para cambiar el mapa : haga clic en los botones verdes con una cruz de color negro para hacer un zoom, en el botón verde con un guión para alejar o en las flechas verdes para mapas adyacentes.


METAR-TAF: